Time;durP1;ratioP1;P1;durP2;ratioP2;P2;SDS_P1;SDS_P2;PMS_P1;PMS_P2;Temp;Humidity;BMP_temperature;BMP_pressure;BME280_temperature;BME280_humidity;BME280_pressure;Samples;Min_cycle;Max_cycle;Signal;HPM_P1;HPM_P2
2023/03/25 00:01:42;;;;;;;17.90;14.20;;;;;;;15.06;60.18;98920.17;107948;1253;73889;-77
2023/03/25 00:04:10;;;;;;;16.70;14.10;;;;;;;15.08;60.06;98910.65;106538;1258;60925;-77
2023/03/25 00:06:39;;;;;;;14.70;13.10;;;;;;;15.10;59.83;98910.15;106324;1256;60378;-82
2023/03/25 00:09:11;;;;;;;16.30;14.20;;;;;;;15.11;59.75;98914.61;106352;1257;73913;-77
2023/03/25 00:11:42;;;;;;;16.30;13.30;;;;;;;15.11;59.30;98911.33;106464;1251;69613;-79
2023/03/25 00:14:11;;;;;;;16.40;14.40;;;;;;;15.11;59.46;98910.59;106397;1255;72340;-82
2023/03/25 00:16:47;;;;;;;18.60;14.00;;;;;;;15.11;59.20;98907.05;105978;1253;172528;-79
2023/03/25 00:20:59;;;;;;;16.10;13.90;;;;;;;15.14;58.83;98905.58;103046;1304;601345;-81
2023/03/25 00:23:34;;;;;;;15.30;13.70;;;;;;;15.12;58.67;98903.95;105587;1267;59462;-79
2023/03/25 00:26:03;;;;;;;18.00;14.50;;;;;;;15.12;58.59;98918.45;107029;1266;59203;-80
2023/03/25 00:28:32;;;;;;;15.30;13.70;;;;;;;15.13;58.66;98917.98;107562;1267;71889;-77
2023/03/25 00:31:11;;;;;;;19.30;15.20;;;;;;;15.12;58.71;98919.23;107675;1257;69145;-76
2023/03/25 00:33:40;;;;;;;19.90;15.10;;;;;;;15.11;58.60;98924.55;105903;1259;188979;-79
2023/03/25 00:36:13;;;;;;;21.10;16.00;;;;;;;15.07;58.74;98921.98;107163;1253;59670;-78
2023/03/25 00:38:44;;;;;;;17.20;15.20;;;;;;;15.06;58.63;98916.88;108537;1252;60018;-78
2023/03/25 00:41:21;;;;;;;17.20;15.20;;;;;;;15.04;58.74;98915.81;108071;1254;72253;-78
2023/03/25 00:43:55;;;;;;;17.60;15.40;;;;;;;15.04;58.59;98912.70;106399;1254;71641;-81
2023/03/25 00:46:26;;;;;;;16.00;14.50;;;;;;;15.03;58.65;98907.37;106884;1259;72293;-79
2023/03/25 00:48:55;;;;;;;18.10;16.10;;;;;;;15.00;58.68;98904.45;109097;1252;60066;-79
2023/03/25 00:51:30;;;;;;;17.60;15.50;;;;;;;14.99;58.46;98907.80;107605;1254;59651;-81
2023/03/25 00:53:59;;;;;;;18.10;15.90;;;;;;;14.99;58.46;98901.26;109309;1253;72416;-75
2023/03/25 00:56:30;;;;;;;18.10;16.20;;;;;;;14.98;58.54;98902.23;109232;1254;70152;-76
2023/03/25 00:58:58;;;;;;;20.40;17.20;;;;;;;14.98;58.82;98902.78;106218;1254;71140;-76
2023/03/25 01:01:27;;;;;;;17.60;15.60;;;;;;;14.96;59.26;98902.02;106318;1253;59804;-75
2023/03/25 01:03:57;;;;;;;18.50;15.10;;;;;;;14.91;59.25;98898.80;106093;1254;61778;-77
2023/03/25 01:06:27;;;;;;;19.10;15.40;;;;;;;14.86;59.44;98899.34;108270;1254;72197;-76
2023/03/25 01:08:59;;;;;;;20.50;16.20;;;;;;;14.81;59.30;98899.75;108295;1253;69421;-77
2023/03/25 01:11:29;;;;;;;20.90;17.00;;;;;;;14.77;59.31;98902.77;106755;1254;71787;-76
2023/03/25 01:13:58;;;;;;;21.00;16.40;;;;;;;14.72;59.40;98895.35;107561;1253;59758;-77
2023/03/25 01:16:28;;;;;;;20.50;16.10;;;;;;;14.68;59.38;98905.86;107220;1253;60095;-76
2023/03/25 01:18:56;;;;;;;18.70;15.00;;;;;;;14.63;59.14;98900.72;106922;1259;74193;-76
2023/03/25 01:21:25;;;;;;;18.20;15.60;;;;;;;14.59;59.73;98901.67;107298;1258;69646;-77
2023/03/25 01:23:54;;;;;;;17.50;14.10;;;;;;;14.54;59.58;98906.73;108153;1253;72175;-77
2023/03/25 01:26:22;;;;;;;16.40;13.60;;;;;;;14.48;59.71;98903.64;108205;1253;59465;-79
2023/03/25 01:28:50;;;;;;;17.30;13.60;;;;;;;14.43;59.97;98904.91;107392;1253;59555;-75
2023/03/25 01:31:18;;;;;;;17.10;13.80;;;;;;;14.38;59.79;98907.94;108219;1254;72118;-78
2023/03/25 01:33:48;;;;;;;17.80;14.50;;;;;;;14.34;60.10;98906.17;108127;1253;69119;-78
2023/03/25 01:36:20;;;;;;;16.00;12.90;;;;;;;14.29;60.32;98904.94;108328;1254;71703;-77
2023/03/25 01:38:49;;;;;;;18.30;14.80;;;;;;;14.23;60.74;98908.14;108089;1253;60402;-78
2023/03/25 01:41:18;;;;;;;17.90;14.40;;;;;;;14.17;60.51;98903.91;107993;1253;60660;-78
2023/03/25 01:44:26;;;;;;;18.70;14.30;;;;;;;14.11;60.38;98901.20;108382;1253;72064;-80
2023/03/25 01:46:58;;;;;;;16.00;14.20;;;;;;;14.06;60.61;98898.50;106985;1261;68193;-77
2023/03/25 01:49:37;;;;;;;18.70;13.80;;;;;;;14.03;60.55;98900.19;108043;1260;73004;-76
2023/03/25 01:52:30;;;;;;;18.30;14.10;;;;;;;13.99;60.40;98899.63;109167;1253;59501;-78
2023/03/25 01:54:58;;;;;;;17.30;13.70;;;;;;;13.97;60.23;98891.17;109307;1252;60046;-78
2023/03/25 01:57:26;;;;;;;17.90;14.70;;;;;;;13.96;60.37;98896.40;109021;1254;73042;-77
2023/03/25 01:59:54;;;;;;;14.90;12.50;;;;;;;13.94;60.53;98893.89;109413;1253;70029;-79
2023/03/25 02:02:33;;;;;;;17.70;14.10;;;;;;;13.91;60.64;98895.92;109399;1254;72902;-79
2023/03/25 02:05:24;;;;;;;19.00;14.20;;;;;;;13.86;60.32;98898.34;109136;1254;58607;-77
2023/03/25 02:07:53;;;;;;;18.50;15.40;;;;;;;13.82;60.78;98884.45;109363;1254;59424;-79
2023/03/25 02:10:22;;;;;;;16.10;13.80;;;;;;;13.77;60.98;98894.45;109206;1253;72652;-80
2023/03/25 02:12:50;;;;;;;19.50;14.40;;;;;;;13.72;60.93;98891.16;109246;1253;70026;-79
2023/03/25 02:15:22;;;;;;;18.30;14.70;;;;;;;13.68;60.83;98890.64;108875;1253;71580;-80
2023/03/25 02:18:18;;;;;;;21.60;15.20;;;;;;;13.66;60.73;98883.26;109254;1258;59367;-80
2023/03/25 02:20:46;;;;;;;20.50;15.30;;;;;;;13.65;60.64;98882.67;109325;1253;58396;-80
2023/03/25 02:23:40;;;;;;;16.50;14.20;;;;;;;13.65;60.64;98885.35;109552;1253;72801;-79
2023/03/25 02:26:48;;;;;;;24.20;14.80;;;;;;;13.65;60.17;98881.45;109356;1253;69076;-78
2023/03/25 02:29:36;;;;;;;17.10;14.40;;;;;;;13.66;59.74;98885.18;109261;1253;72417;-80
2023/03/25 02:32:21;;;;;;;17.90;14.00;;;;;;;13.68;59.63;98876.11;109352;1253;60088;-81
2023/03/25 02:35:15;;;;;;;20.30;15.30;;;;;;;13.69;59.30;98865.14;109344;1253;59081;-79
2023/03/25 02:38:07;;;;;;;17.70;14.20;;;;;;;13.70;59.29;98861.41;109319;1253;73154;-78
2023/03/25 02:40:48;;;;;;;17.00;14.20;;;;;;;13.70;59.31;98859.71;109189;1253;70067;-78
2023/03/25 02:43:30;;;;;;;20.40;15.50;;;;;;;13.70;59.01;98863.20;109217;1253;71684;-79
2023/03/25 02:46:07;;;;;;;21.80;16.50;;;;;;;13.70;59.11;98868.63;109353;1252;59135;-77
2023/03/25 02:48:57;;;;;;;20.90;15.20;;;;;;;13.70;58.84;98871.21;109301;1253;60286;-78
2023/03/25 02:51:31;;;;;;;18.90;14.40;;;;;;;13.70;58.97;98864.98;108478;1253;72876;-79
2023/03/25 02:54:04;;;;;;;17.60;14.60;;;;;;;13.69;58.84;98866.61;107898;1255;71638;-78
2023/03/25 02:56:34;;;;;;;19.00;13.40;;;;;;;13.68;58.78;98870.52;109414;1253;72609;-80
2023/03/25 02:59:02;;;;;;;16.80;14.40;;;;;;;13.67;58.59;98872.85;109038;1253;60040;-80
2023/03/25 03:01:33;;;;;;;18.50;14.50;;;;;;;13.65;58.47;98863.50;109325;1253;60155;-79
2023/03/25 03:04:05;;;;;;;21.10;15.40;;;;;;;13.64;58.56;98862.73;109239;1253;73284;-79
2023/03/25 03:06:36;;;;;;;19.30;15.10;;;;;;;13.63;58.51;98856.28;106921;1253;70521;-74
2023/03/25 03:09:24;;;;;;;18.10;14.00;;;;;;;13.61;58.38;98856.30;106195;1254;72364;-79
2023/03/25 03:12:14;;;;;;;16.10;13.60;;;;;;;13.57;58.33;98863.48;105942;1254;59676;-79
2023/03/25 03:15:06;;;;;;;21.70;15.80;;;;;;;13.53;59.80;98874.34;105990;1257;61436;-76
2023/03/25 03:17:56;;;;;;;19.80;15.90;;;;;;;13.45;60.56;98877.55;105951;1253;72369;-76
2023/03/25 03:21:05;;;;;;;19.40;14.60;;;;;;;13.31;61.23;98872.99;106026;1254;70418;-77
2023/03/25 03:24:03;;;;;;;19.20;15.30;;;;;;;13.16;61.61;98866.35;105887;1254;73654;-76
2023/03/25 03:26:42;;;;;;;19.40;15.60;;;;;;;13.02;61.97;98862.58;105970;1253;60404;-78
2023/03/25 03:29:19;;;;;;;20.80;16.70;;;;;;;12.92;62.53;98861.34;105842;1257;61180;-75
2023/03/25 03:31:47;;;;;;;18.90;14.90;;;;;;;12.83;62.55;98857.08;105929;1253;73380;-79
2023/03/25 03:34:46;;;;;;;22.20;15.50;;;;;;;12.75;63.00;98854.80;106055;1257;70249;-78
2023/03/25 03:37:33;;;;;;;20.70;15.40;;;;;;;12.69;63.15;98857.06;105916;1258;72856;-78
2023/03/25 03:40:05;;;;;;;16.20;13.90;;;;;;;12.65;63.24;98853.25;105914;1258;60054;-73
2023/03/25 03:42:34;;;;;;;17.90;15.50;;;;;;;12.62;63.32;98851.69;107376;1252;60614;-77
2023/03/25 03:45:44;;;;;;;17.20;14.50;;;;;;;12.59;63.38;98850.94;109363;1253;72079;-78
2023/03/25 03:48:23;;;;;;;17.50;14.60;;;;;;;12.56;63.68;98847.41;107554;1253;68632;-78
2023/03/25 03:50:59;;;;;;;21.10;15.90;;;;;;;12.53;63.48;98853.52;106802;1253;71667;-78
2023/03/25 03:53:37;;;;;;;20.40;15.60;;;;;;;12.51;63.53;98854.90;106433;1253;60592;-78
2023/03/25 03:56:08;;;;;;;17.60;14.10;;;;;;;12.47;63.75;98846.67;106394;1253;59740;-78
2023/03/25 03:58:41;;;;;;;21.20;16.00;;;;;;;12.45;63.54;98853.70;105992;1256;73882;-78
2023/03/25 04:01:15;;;;;;;19.30;15.60;;;;;;;12.43;63.59;98851.85;105854;1259;69066;-77
2023/03/25 04:03:49;;;;;;;22.90;16.70;;;;;;;12.42;63.61;98851.48;105821;1253;71758;-76
2023/03/25 04:06:23;;;;;;;21.70;15.50;;;;;;;12.40;63.61;98849.20;105983;1253;61523;-78
2023/03/25 04:09:08;;;;;;;19.20;16.10;;;;;;;12.39;63.65;98853.69;105937;1253;61275;-79
2023/03/25 04:11:40;;;;;;;19.80;16.00;;;;;;;12.38;63.64;98854.96;106924;1257;73275;-74
2023/03/25 04:14:08;;;;;;;21.90;16.70;;;;;;;12.36;63.71;98853.40;106498;1253;71218;-76
2023/03/25 04:16:38;;;;;;;20.30;16.60;;;;;;;12.37;63.73;98854.80;105980;1253;73093;-76
2023/03/25 04:19:08;;;;;;;19.50;16.80;;;;;;;12.36;63.53;98858.57;105637;1253;60476;-75
2023/03/25 04:21:44;;;;;;;20.00;16.60;;;;;;;12.37;63.63;98855.83;105578;1253;61564;-76
2023/03/25 04:24:15;;;;;;;23.10;17.00;;;;;;;12.37;63.50;98859.77;105800;1253;72762;-78
2023/03/25 04:26:44;;;;;;;23.40;17.10;;;;;;;12.36;63.39;98859.88;105994;1258;69661;-76
2023/03/25 04:29:14;;;;;;;20.90;16.50;;;;;;;12.35;63.61;98852.17;105636;1258;73607;-77
2023/03/25 04:31:48;;;;;;;22.20;17.10;;;;;;;12.34;63.56;98856.23;106060;1258;59905;-79
2023/03/25 04:34:19;;;;;;;21.70;15.40;;;;;;;12.33;63.47;98855.94;106042;1252;60855;-79
2023/03/25 04:36:49;;;;;;;18.60;15.90;;;;;;;12.32;63.64;98859.30;107298;1253;73268;-79
2023/03/25 04:39:21;;;;;;;22.40;17.00;;;;;;;12.31;64.10;98861.89;109415;1254;68172;-80
2023/03/25 04:41:55;;;;;;;21.60;17.20;;;;;;;12.28;64.68;98846.29;108421;1253;72697;-79
2023/03/25 04:44:24;;;;;;;22.30;17.70;;;;;;;12.25;64.86;98849.85;106655;1257;60543;-75
2023/03/25 04:46:54;;;;;;;19.40;17.20;;;;;;;12.20;65.30;98842.45;106626;1253;60307;-76
2023/03/25 04:49:26;;;;;;;23.70;17.60;;;;;;;12.15;65.51;98840.27;106851;1257;73981;-74
2023/03/25 04:51:55;;;;;;;23.70;16.40;;;;;;;12.10;65.65;98840.70;106470;1254;70229;-75
2023/03/25 04:54:27;;;;;;;20.50;18.00;;;;;;;12.07;65.80;98833.86;105665;1253;74010;-76
2023/03/25 04:56:57;;;;;;;21.30;17.80;;;;;;;12.05;65.90;98830.95;105749;1254;60448;-75
2023/03/25 04:59:26;;;;;;;20.60;17.50;;;;;;;12.02;66.25;98838.02;105711;1253;60480;-76
2023/03/25 05:01:55;;;;;;;20.80;17.20;;;;;;;11.98;66.22;98842.52;105611;1258;73541;-76
2023/03/25 05:04:24;;;;;;;21.20;17.90;;;;;;;11.94;66.37;98832.29;105763;1253;69658;-77
2023/03/25 05:06:57;;;;;;;21.50;18.50;;;;;;;11.92;66.46;98822.02;107177;1254;71517;-78
2023/03/25 05:09:25;;;;;;;23.70;18.10;;;;;;;11.91;66.43;98816.56;106551;1253;61612;-79
2023/03/25 05:11:54;;;;;;;21.50;18.00;;;;;;;11.90;66.56;98812.61;106200;1258;61147;-78
2023/03/25 05:14:24;;;;;;;21.50;17.80;;;;;;;11.90;66.61;98812.09;105992;1253;74704;-77
2023/03/25 05:16:56;;;;;;;22.70;17.50;;;;;;;11.90;66.27;98810.26;105980;1253;68404;-80
2023/03/25 05:19:24;;;;;;;22.30;18.00;;;;;;;11.92;66.54;98811.12;105921;1253;73549;-78
2023/03/25 05:21:56;;;;;;;21.60;18.00;;;;;;;11.93;66.25;98817.67;105945;1253;60589;-77
2023/03/25 05:24:26;;;;;;;20.60;18.20;;;;;;;11.95;66.33;98820.83;107227;1253;60582;-76
2023/03/25 05:26:54;;;;;;;23.20;18.10;;;;;;;11.97;66.11;98819.52;107249;1257;74107;-78
2023/03/25 05:29:22;;;;;;;26.70;18.80;;;;;;;12.00;66.35;98814.52;105908;1257;68877;-78
2023/03/25 05:31:50;;;;;;;20.60;17.50;;;;;;;12.03;66.07;98812.38;105873;1254;73486;-78
2023/03/25 05:34:19;;;;;;;23.60;17.50;;;;;;;12.06;66.03;98806.66;108866;1253;60410;-77
2023/03/25 05:36:48;;;;;;;23.60;18.40;;;;;;;12.09;65.90;98808.64;109453;1253;59129;-77
2023/03/25 05:39:16;;;;;;;24.30;18.40;;;;;;;12.14;65.80;98810.54;106604;1253;72858;-78
2023/03/25 05:41:44;;;;;;;24.00;18.30;;;;;;;12.19;65.40;98807.92;106148;1251;70536;-79
2023/03/25 05:44:13;;;;;;;21.40;17.90;;;;;;;12.23;65.43;98801.02;106022;1253;72880;-80
2023/03/25 05:46:42;;;;;;;23.30;17.70;;;;;;;12.28;65.05;98804.66;106104;1253;60445;-80
2023/03/25 05:49:11;;;;;;;21.80;18.00;;;;;;;12.32;65.02;98802.30;106645;1252;61341;-75
2023/03/25 05:51:40;;;;;;;21.50;16.70;;;;;;;12.36;64.73;98804.56;106212;1257;74790;-77
2023/03/25 05:54:09;;;;;;;20.70;17.10;;;;;;;12.42;64.52;98802.48;106611;1253;71414;-79
2023/03/25 05:56:39;;;;;;;21.10;18.00;;;;;;;12.47;64.20;98806.27;106733;1253;71817;-76
2023/03/25 05:59:09;;;;;;;21.90;18.20;;;;;;;12.53;63.92;98802.29;106279;1251;60528;-77
2023/03/25 06:01:40;;;;;;;21.90;16.90;;;;;;;12.57;63.77;98804.63;106040;1254;60432;-81
2023/03/25 06:04:15;;;;;;;22.00;16.80;;;;;;;12.61;63.92;98804.38;105915;1253;73228;-79
2023/03/25 06:06:47;;;;;;;21.60;16.20;;;;;;;12.62;64.21;98797.33;106058;1253;70219;-81
2023/03/25 06:09:16;;;;;;;25.30;17.10;;;;;;;12.62;63.95;98795.85;105998;1253;70695;-80
2023/03/25 06:11:52;;;;;;;19.40;16.20;;;;;;;12.61;63.44;98792.32;105997;1253;61372;-80
2023/03/25 06:14:24;;;;;;;;;;;;;;;12.60;63.26;98784.45;106287;1254;61278;-85
2023/03/25 06:16:55;;;;;;;20.20;16.50;;;;;;;12.59;63.33;98775.32;106322;1255;74368;-81
2023/03/25 06:19:25;;;;;;;21.50;18.50;;;;;;;12.59;63.28;98777.13;106232;1253;70996;-78
2023/03/25 06:21:59;;;;;;;22.20;16.00;;;;;;;12.61;63.18;98775.64;106226;1253;73867;-82
2023/03/25 06:24:37;;;;;;;20.50;17.00;;;;;;;12.62;63.04;98773.80;106152;1256;60559;-82
2023/03/25 06:27:07;;;;;;;20.40;17.20;;;;;;;12.65;62.46;98772.78;106130;1252;60612;-80
2023/03/25 06:29:36;;;;;;;18.40;16.40;;;;;;;12.66;62.48;98775.40;107659;1258;75002;-79
2023/03/25 06:32:04;;;;;;;18.80;16.10;;;;;;;12.69;62.33;98777.41;109293;1253;70027;-80
2023/03/25 06:34:34;;;;;;;19.30;16.50;;;;;;;12.71;62.36;98772.82;107913;1253;73022;-81
2023/03/25 06:37:02;;;;;;;19.90;16.40;;;;;;;12.74;62.15;98772.09;106544;1256;60631;-78
2023/03/25 06:39:32;;;;;;;20.60;16.60;;;;;;;12.77;62.09;98772.04;106396;1251;60520;-79
2023/03/25 06:42:06;;;;;;;27.00;16.30;;;;;;;12.81;62.09;98766.75;105972;1253;76251;-81
2023/03/25 06:45:04;;;;;;;20.50;17.40;;;;;;;12.85;61.82;98769.73;105587;1261;72838;-79
2023/03/25 06:47:44;;;;;;;21.10;17.70;;;;;;;12.88;61.39;98774.60;105993;1252;73616;-81
2023/03/25 06:50:13;;;;;;;20.60;15.80;;;;;;;12.89;61.23;98771.79;106016;1253;60481;-77
2023/03/25 06:52:41;;;;;;;20.10;16.00;;;;;;;12.92;61.34;98769.96;105980;1253;60580;-78
2023/03/25 06:55:11;;;;;;;21.60;16.50;;;;;;;12.95;60.96;98765.54;106823;1251;73479;-79
2023/03/25 06:57:40;;;;;;;20.50;15.90;;;;;;;12.98;60.86;98765.95;107002;1253;71501;-81
2023/03/25 07:00:13;;;;;;;16.60;14.80;;;;;;;13.01;60.71;98763.77;106885;1253;72989;-81
2023/03/25 07:02:47;;;;;;;22.70;16.40;;;;;;;13.05;60.74;98766.88;107132;1253;60742;-83
2023/03/25 07:05:15;;;;;;;19.80;17.40;;;;;;;13.08;60.60;98768.27;107183;1257;61627;-80
2023/03/25 07:07:44;;;;;;;21.10;17.10;;;;;;;13.12;60.47;98765.59;106061;1257;73707;-77
2023/03/25 07:10:13;;;;;;;19.50;16.00;;;;;;;13.16;60.40;98766.08;106033;1253;71637;-77
2023/03/25 07:12:42;;;;;;;19.90;16.00;;;;;;;13.18;60.02;98767.34;105994;1253;73444;-78
2023/03/25 07:15:15;;;;;;;20.20;16.30;;;;;;;13.22;59.85;98758.39;106043;1251;61385;-79
2023/03/25 07:17:47;;;;;;;22.50;16.40;;;;;;;13.25;60.04;98764.01;105929;1253;60448;-79
2023/03/25 07:20:16;;;;;;;21.60;16.30;;;;;;;13.29;59.88;98758.27;106108;1252;74818;-77
2023/03/25 07:22:48;;;;;;;17.00;15.20;;;;;;;13.33;59.88;98769.59;106346;1251;70986;-79
2023/03/25 07:25:17;;;;;;;19.40;16.90;;;;;;;13.37;59.78;98761.45;107449;1252;71711;-76
2023/03/25 07:27:52;;;;;;;18.50;16.50;;;;;;;13.43;59.83;98757.83;109138;1253;59397;-81
2023/03/25 07:30:22;;;;;;;21.50;17.00;;;;;;;13.49;59.72;98761.83;108492;1253;60342;-81
2023/03/25 07:32:50;;;;;;;22.30;16.40;;;;;;;13.53;59.46;98759.48;107240;1251;73630;-82
2023/03/25 07:35:20;;;;;;;24.60;17.90;;;;;;;13.56;59.63;98747.67;107211;1258;68224;-83
2023/03/25 07:37:48;;;;;;;21.60;17.10;;;;;;;13.56;59.57;98742.64;106174;1253;72755;-83
2023/03/25 07:40:17;;;;;;;23.90;17.70;;;;;;;13.57;59.94;98746.65;106113;1253;60870;-85
2023/03/25 07:42:45;;;;;;;19.70;17.10;;;;;;;13.57;60.25;98750.45;106125;1253;60656;-79
2023/03/25 07:45:13;;;;;;;19.90;17.00;;;;;;;13.58;60.18;98753.13;106163;1258;72954;-79
2023/03/25 07:47:42;;;;;;;21.60;19.20;;;;;;;13.57;60.14;98741.23;106334;1253;71257;-82
2023/03/25 07:50:11;;;;;;;20.80;17.70;;;;;;;13.59;60.17;98735.30;106239;1253;73403;-83
2023/03/25 07:52:42;;;;;;;19.60;17.00;;;;;;;13.64;60.04;98737.02;106055;1253;60342;-81
2023/03/25 07:55:10;;;;;;;20.90;18.30;;;;;;;13.66;59.71;98744.84;106206;1252;60517;-82
2023/03/25 07:57:39;;;;;;;20.10;17.80;;;;;;;13.67;59.78;98738.11;106365;1252;74883;-84
2023/03/25 08:00:10;;;;;;;22.80;18.20;;;;;;;13.68;59.61;98731.05;106231;1257;71169;-78
2023/03/25 08:02:41;;;;;;;27.00;19.60;;;;;;;13.70;59.62;98727.83;106444;1253;72828;-79
2023/03/25 08:05:09;;;;;;;27.00;18.90;;;;;;;13.70;59.73;98729.30;106353;1256;60534;-80
2023/03/25 08:07:40;;;;;;;24.20;18.70;;;;;;;13.72;59.58;98726.51;107495;1253;61484;-79
2023/03/25 08:10:09;;;;;;;24.40;18.40;;;;;;;13.76;59.66;98710.71;106023;1253;75044;-81
2023/03/25 08:12:38;;;;;;;26.20;18.90;;;;;;;13.83;59.61;98713.77;105919;1257;70061;-79
2023/03/25 08:15:08;;;;;;;22.40;19.00;;;;;;;13.89;59.43;98721.40;105991;1253;74263;-80
2023/03/25 08:17:38;;;;;;;20.40;17.80;;;;;;;13.92;59.20;98712.14;106428;1253;61529;-79
2023/03/25 08:20:06;;;;;;;19.10;16.80;;;;;;;13.96;58.97;98715.98;106175;1256;60614;-79
2023/03/25 08:22:35;;;;;;;19.20;17.10;;;;;;;13.98;58.78;98710.38;109061;1252;73851;-79
2023/03/25 08:25:07;;;;;;;29.10;19.00;;;;;;;14.02;59.01;98704.12;109410;1253;69299;-77
2023/03/25 08:27:35;;;;;;;23.80;17.50;;;;;;;14.08;58.80;98695.77;106945;1251;72624;-77
2023/03/25 08:30:04;;;;;;;22.00;18.10;;;;;;;14.14;58.69;98695.98;107883;1258;59407;-78
2023/03/25 08:32:35;;;;;;;27.50;18.30;;;;;;;14.19;58.55;98698.73;106288;1253;60524;-79
2023/03/25 08:35:06;;;;;;;22.20;18.60;;;;;;;14.20;58.50;98691.77;106021;1256;72242;-79
2023/03/25 08:37:36;;;;;;;21.20;18.60;;;;;;;14.21;58.45;98684.38;106096;1255;69966;-76
2023/03/25 08:40:08;;;;;;;26.70;19.50;;;;;;;14.22;58.51;98679.77;106080;1257;71441;-79
2023/03/25 08:42:37;;;;;;;22.80;19.40;;;;;;;14.24;58.23;98676.01;106122;1253;60903;-78
2023/03/25 08:45:06;;;;;;;23.10;18.20;;;;;;;14.26;58.27;98676.03;106075;1253;60521;-76
2023/03/25 08:47:34;;;;;;;20.90;17.70;;;;;;;14.27;58.24;98679.18;106314;1253;73071;-80
2023/03/25 08:50:07;;;;;;;21.20;17.40;;;;;;;14.27;58.30;98680.53;106701;1253;69639;-78
2023/03/25 08:52:36;;;;;;;20.70;18.50;;;;;;;14.29;58.30;98692.46;106361;1257;72643;-78
2023/03/25 08:55:06;;;;;;;19.80;17.40;;;;;;;14.28;58.02;98690.56;106496;1253;60446;-77
2023/03/25 08:57:41;;;;;;;21.80;18.50;;;;;;;14.27;58.21;98688.80;106506;1256;60537;-76
2023/03/25 09:00:12;;;;;;;21.80;19.20;;;;;;;14.27;58.20;98681.31;106415;1253;72951;-78
2023/03/25 09:02:46;;;;;;;23.90;19.60;;;;;;;14.27;58.14;98679.02;106367;1253;69592;-78
2023/03/25 09:05:15;;;;;;;20.90;18.50;;;;;;;14.28;58.36;98680.30;107569;1253;73422;-76
2023/03/25 09:07:46;;;;;;;23.50;19.70;;;;;;;14.29;58.20;98681.23;107633;1253;60547;-82
2023/03/25 09:10:14;;;;;;;23.10;18.20;;;;;;;14.30;58.42;98686.08;108369;1254;60490;-81
2023/03/25 09:12:46;;;;;;;23.60;20.40;;;;;;;14.32;58.82;98694.36;107853;1253;72239;-83
2023/03/25 09:15:15;;;;;;;25.60;20.90;;;;;;;14.33;58.60;98685.80;107612;1253;70587;-83
2023/03/25 09:17:44;;;;;;;27.90;21.50;;;;;;;14.37;58.81;98683.83;108618;1253;70530;-79
2023/03/25 09:20:12;;;;;;;25.70;21.40;;;;;;;14.44;58.80;98676.25;109564;1252;59259;-83
2023/03/25 09:22:41;;;;;;;24.70;20.80;;;;;;;14.53;58.75;98675.23;108882;1255;59980;-81
2023/03/25 09:25:13;;;;;;;22.90;19.00;;;;;;;14.66;58.70;98667.92;108965;1251;73661;-86
2023/03/25 09:27:42;;;;;;;23.40;20.50;;;;;;;14.83;58.53;98664.69;107819;1251;70239;-82
2023/03/25 09:30:11;;;;;;;25.10;22.50;;;;;;;14.98;58.19;98667.39;106945;1253;73785;-83
2023/03/25 09:32:45;;;;;;;24.20;20.80;;;;;;;15.09;57.64;98659.94;106711;1253;61208;-82
2023/03/25 09:35:14;;;;;;;23.50;19.90;;;;;;;15.16;57.50;98661.35;106640;1258;61219;-79
2023/03/25 09:37:47;;;;;;;24.40;21.80;;;;;;;15.17;57.43;98657.06;106656;1252;74824;-82
2023/03/25 09:40:20;;;;;;;26.40;20.70;;;;;;;15.12;57.51;98644.85;107281;1251;71540;-85
2023/03/25 09:43:28;;;;;;;23.40;20.90;;;;;;;15.11;57.74;98645.61;107093;1253;73629;-79
2023/03/25 09:45:57;;;;;;;22.80;20.40;;;;;;;15.09;57.72;98658.06;106385;1253;60703;-83
2023/03/25 09:48:43;;;;;;;24.40;21.80;;;;;;;15.03;57.82;98660.27;106668;1256;60846;-82
2023/03/25 09:51:45;;;;;;;25.70;21.10;;;;;;;14.98;57.80;98657.12;106839;1261;73831;-82
2023/03/25 09:54:19;;;;;;;25.70;21.40;;;;;;;14.92;57.76;98651.58;106170;1253;70207;-82
2023/03/25 09:56:47;;;;;;;25.90;20.40;;;;;;;14.87;57.84;98655.99;106904;1253;71669;-86
2023/03/25 09:59:24;;;;;;;22.90;18.40;;;;;;;14.85;58.09;98648.17;107880;1254;61353;-81
2023/03/25 10:02:32;;;;;;;23.80;19.80;;;;;;;14.83;58.32;98649.13;108520;1253;60626;-80
2023/03/25 10:05:19;;;;;;;25.20;21.60;;;;;;;14.82;58.54;98644.24;107015;1257;73330;-83
2023/03/25 10:08:12;;;;;;;27.30;21.40;;;;;;;14.84;58.85;98636.16;106367;1253;70583;-80
2023/03/25 10:11:07;;;;;;;24.20;20.00;;;;;;;14.86;58.83;98621.45;107274;1254;71112;-78
2023/03/25 10:13:48;;;;;;;26.80;20.90;;;;;;;14.88;58.91;98625.11;109628;1253;58161;-80
2023/03/25 10:16:34;;;;;;;28.10;19.90;;;;;;;14.90;58.82;98628.73;109497;1252;58068;-81
2023/03/25 10:19:11;;;;;;;23.30;20.90;;;;;;;14.92;58.61;98634.30;108898;1251;74843;-80
2023/03/25 10:22:03;;;;;;;21.20;18.90;;;;;;;14.94;58.69;98627.63;108116;1253;70325;-82
2023/03/25 10:24:49;;;;;;;22.40;20.00;;;;;;;14.96;58.51;98621.63;106448;1253;73880;-82
2023/03/25 10:27:34;;;;;;;27.70;21.40;;;;;;;14.97;58.70;98622.86;106370;1259;60350;-82
2023/03/25 10:30:21;;;;;;;23.10;19.90;;;;;;;14.99;58.69;98616.37;107750;1252;60261;-84
2023/03/25 10:32:55;;;;;;;27.60;21.80;;;;;;;15.00;58.70;98622.98;107624;1257;71952;-80
2023/03/25 10:35:28;;;;;;;24.50;21.10;;;;;;;15.00;58.65;98619.61;106440;1253;69400;-81
2023/03/25 10:38:17;;;;;;;23.80;20.00;;;;;;;15.00;58.77;98616.15;106475;1258;71097;-79
2023/03/25 10:40:50;;;;;;;22.20;19.20;;;;;;;15.03;58.84;98622.21;107559;1259;60557;-82
2023/03/25 10:43:31;;;;;;;23.20;20.40;;;;;;;15.05;58.85;98622.88;106228;1258;61460;-82
2023/03/25 10:46:12;;;;;;;24.30;20.60;;;;;;;15.08;58.94;98614.94;106220;1256;74765;-82
2023/03/25 10:48:48;;;;;;;24.60;22.00;;;;;;;15.14;58.90;98613.02;106073;1253;70591;-81
2023/03/25 10:51:18;;;;;;;24.40;20.00;;;;;;;15.20;58.85;98605.40;105965;1253;73907;-80
2023/03/25 10:53:53;;;;;;;25.50;21.20;;;;;;;15.25;58.97;98601.30;108425;1253;60651;-80
2023/03/25 10:56:24;;;;;;;25.80;22.60;;;;;;;15.31;59.01;98600.30;107386;1253;60464;-80
2023/03/25 10:58:54;;;;;;;23.90;20.40;;;;;;;15.38;58.85;98599.03;105824;1253;73939;-81
2023/03/25 11:01:41;;;;;;;25.50;21.20;;;;;;;15.45;58.86;98589.19;106057;1253;70127;-81
2023/03/25 11:04:18;;;;;;;25.50;22.20;;;;;;;15.58;58.79;98584.84;105964;1253;73611;-80
2023/03/25 11:06:54;;;;;;;23.80;21.20;;;;;;;15.71;58.60;98582.13;106225;1257;60552;-79
2023/03/25 11:09:29;;;;;;;23.50;20.90;;;;;;;15.86;58.23;98583.58;109175;1258;60115;-81
2023/03/25 11:11:58;;;;;;;26.00;21.50;;;;;;;15.99;57.90;98582.70;109462;1253;73648;-82
2023/03/25 11:14:28;;;;;;;25.20;22.20;;;;;;;16.05;57.51;98584.30;106440;1258;68994;-81
2023/03/25 11:17:02;;;;;;;23.30;20.50;;;;;;;16.06;57.32;98570.14;106477;1257;72576;-80
2023/03/25 11:19:41;;;;;;;24.90;21.90;;;;;;;16.07;57.30;98562.75;106070;1253;60440;-81
2023/03/25 11:22:23;;;;;;;22.70;20.20;;;;;;;16.15;57.30;98562.89;106135;1253;60525;-80
2023/03/25 11:24:58;;;;;;;27.70;22.50;;;;;;;16.30;56.94;98564.56;106321;1253;74383;-80
2023/03/25 11:27:30;;;;;;;27.90;23.30;;;;;;;16.40;56.69;98560.10;106410;1253;70110;-81
2023/03/25 11:30:04;;;;;;;25.90;23.40;;;;;;;16.48;56.39;98570.04;106501;1253;73461;-82
2023/03/25 11:32:36;;;;;;;26.20;23.40;;;;;;;16.54;56.27;98560.53;107624;1253;61377;-81
2023/03/25 11:35:36;;;;;;;25.20;22.40;;;;;;;16.57;56.28;98562.13;107080;1251;60399;-81
2023/03/25 11:38:15;;;;;;;26.00;22.10;;;;;;;16.54;55.96;98565.40;105879;1252;73658;-82
2023/03/25 11:40:52;;;;;;;24.20;21.70;;;;;;;16.39;56.28;98561.34;105793;1259;68003;-82
2023/03/25 11:43:23;;;;;;;27.20;23.40;;;;;;;16.24;56.39;98564.92;106397;1256;71876;-79